createdAt,value
2023-03-03T00:01:19.526Z,2.24
2023-03-03T00:06:40.459Z,2.19
2023-03-03T00:12:06.296Z,2.01
2023-03-03T00:17:32.843Z,1.84
2023-03-03T00:22:53.867Z,1.75
2023-03-03T00:28:48.208Z,1.64
2023-03-03T00:34:27.714Z,1.68
2023-03-03T00:39:48.886Z,1.72
2023-03-03T00:45:27.523Z,1.73
2023-03-03T00:50:48.985Z,1.75
2023-03-03T00:56:09.775Z,1.70
2023-03-03T01:01:30.675Z,1.63
2023-03-03T01:06:51.215Z,1.59
2023-03-03T01:12:12.357Z,1.67
2023-03-03T01:17:34.416Z,1.67
2023-03-03T01:22:55.024Z,1.67
2023-03-03T01:28:16.203Z,1.58
2023-03-03T01:33:36.976Z,1.53
2023-03-03T01:38:57.763Z,1.55
2023-03-03T01:44:18.476Z,1.50
2023-03-03T01:50:04.448Z,1.60
2023-03-03T01:55:30.905Z,1.57
2023-03-03T02:00:57.747Z,1.42
2023-03-03T02:06:22.771Z,1.50
2023-03-03T02:11:45.751Z,1.49
2023-03-03T02:17:06.722Z,1.56
2023-03-03T02:22:40.228Z,1.70
2023-03-03T02:28:02.304Z,1.56
2023-03-03T02:33:23.491Z,1.40
2023-03-03T02:38:59.299Z,1.24
2023-03-03T02:44:26.618Z,1.35
2023-03-03T02:49:47.377Z,1.47
2023-03-03T02:55:08.719Z,1.37
2023-03-03T03:00:29.729Z,1.39
2023-03-03T03:05:50.260Z,1.26
2023-03-03T03:11:14.411Z,1.16
2023-03-03T03:16:36.165Z,0.99
2023-03-03T03:21:56.910Z,0.89
2023-03-03T03:27:19.371Z,0.89
2023-03-03T03:32:42.500Z,0.90
2023-03-03T03:38:04.198Z,0.78
2023-03-03T03:43:26.849Z,0.57
2023-03-03T03:48:47.907Z,0.70
2023-03-03T03:54:11.716Z,0.93
2023-03-03T03:59:34.031Z,0.94
2023-03-03T04:04:54.618Z,0.96
2023-03-03T04:10:15.403Z,0.92
2023-03-03T04:15:36.126Z,0.92
2023-03-03T04:20:57.652Z,0.83
2023-03-03T04:26:19.728Z,0.65
2023-03-03T04:31:42.335Z,0.51
2023-03-03T04:37:05.768Z,0.44
2023-03-03T04:42:28.295Z,0.39
2023-03-03T04:47:49.230Z,0.35
2023-03-03T04:53:11.016Z,0.33
2023-03-03T04:58:33.214Z,0.42
2023-03-03T05:03:53.769Z,0.47
2023-03-03T05:09:14.480Z,0.44
2023-03-03T05:14:35.189Z,0.41
2023-03-03T05:19:57.349Z,0.25
2023-03-03T05:25:18.230Z,0.11
2023-03-03T05:30:39.242Z,0.21
2023-03-03T05:36:00.348Z,0.25
2023-03-03T05:41:21.061Z,0.23
2023-03-03T05:46:42.767Z,0.20
2023-03-03T05:52:04.175Z,0.28
2023-03-03T05:57:24.910Z,0.31
2023-03-03T06:02:46.206Z,0.37
2023-03-03T06:08:07.233Z,0.39
2023-03-03T06:13:28.076Z,0.40
2023-03-03T06:18:48.996Z,0.37
2023-03-03T06:24:09.876Z,0.30
2023-03-03T06:29:30.836Z,0.27
2023-03-03T06:34:51.531Z,0.32
2023-03-03T06:40:12.757Z,0.39
2023-03-03T06:45:33.521Z,0.40
2023-03-03T06:50:54.122Z,0.47
2023-03-03T06:56:14.876Z,0.36
2023-03-03T07:01:38.456Z,1.03
2023-03-03T07:07:16.888Z,0.73
2023-03-03T07:12:37.960Z,0.58
2023-03-03T07:17:59.745Z,0.48
2023-03-03T07:23:42.599Z,0.40
2023-03-03T07:29:33.377Z,0.64
2023-03-03T07:34:55.577Z,1.92
2023-03-03T07:40:34.895Z,1.42
2023-03-03T07:46:11.221Z,1.23
2023-03-03T07:51:42.102Z,1.14
2023-03-03T07:57:12.288Z,0.95
2023-03-03T08:02:41.556Z,0.75
2023-03-03T08:08:37.031Z,0.76
2023-03-03T08:13:57.758Z,0.88
2023-03-03T08:19:18.896Z,1.01
2023-03-03T08:24:39.393Z,0.96
2023-03-03T08:30:00.127Z,0.96
2023-03-03T08:35:20.926Z,0.98
2023-03-03T08:40:42.586Z,1.05
2023-03-03T08:46:06.171Z,0.91
2023-03-03T08:51:27.431Z,0.85
2023-03-03T08:56:48.451Z,0.92
2023-03-03T09:02:09.376Z,1.04
2023-03-03T09:07:30.609Z,1.13
2023-03-03T09:12:51.837Z,1.23
2023-03-03T09:18:15.735Z,1.07
2023-03-03T09:23:38.745Z,0.96
2023-03-03T09:29:05.108Z,1.05
2023-03-03T09:34:42.729Z,1.12
2023-03-03T09:40:33.212Z,1.29
2023-03-03T09:46:23.539Z,1.53
2023-03-03T09:51:53.364Z,1.85
2023-03-03T09:57:34.270Z,1.78
2023-03-03T10:03:22.694Z,1.76
2023-03-03T10:09:12.007Z,1.84
2023-03-03T10:15:17.397Z,2.10
2023-03-03T10:20:59.624Z,2.26
2023-03-03T10:26:34.837Z,2.37
2023-03-03T10:32:03.138Z,2.81
2023-03-03T10:37:27.731Z,2.82
2023-03-03T10:43:31.883Z,2.96
2023-03-03T10:49:06.246Z,3.08
2023-03-03T10:54:38.671Z,3.11
2023-03-03T11:00:16.767Z,3.32
2023-03-03T11:05:48.278Z,3.54
2023-03-03T11:11:15.322Z,3.51
2023-03-03T11:17:16.284Z,3.67
2023-03-03T11:22:55.086Z,3.79
2023-03-03T11:28:21.988Z,3.95
2023-03-03T11:33:56.475Z,3.91
2023-03-03T11:39:22.243Z,3.86
2023-03-03T11:44:47.937Z,3.85
2023-03-03T11:50:14.218Z,4.05
2023-03-03T11:55:41.416Z,4.23
2023-03-03T12:01:20.059Z,4.30
2023-03-03T12:07:12.903Z,4.39
2023-03-03T12:13:05.128Z,4.62
2023-03-03T12:18:38.195Z,4.78
2023-03-03T12:24:26.213Z,4.76
2023-03-03T12:30:20.373Z,4.93
2023-03-03T12:35:56.240Z,4.94
2023-03-03T12:41:20.511Z,5.00
2023-03-03T12:47:02.373Z,5.07
2023-03-03T12:52:51.419Z,5.13
2023-03-03T12:58:24.133Z,5.25
2023-03-03T13:03:55.710Z,5.22
2023-03-03T13:09:41.176Z,5.54
2023-03-03T13:15:16.354Z,5.42
2023-03-03T13:20:46.255Z,5.39
2023-03-03T13:26:50.137Z,6.04
2023-03-03T13:32:23.282Z,5.89
2023-03-03T13:37:52.675Z,5.59
2023-03-03T13:43:15.995Z,5.43
2023-03-03T13:48:46.722Z,5.40
2023-03-03T13:54:20.548Z,5.34
2023-03-03T14:00:04.782Z,5.38
2023-03-03T14:05:48.582Z,5.38
2023-03-03T14:11:24.046Z,5.44
2023-03-03T14:16:54.863Z,5.40
2023-03-03T14:22:40.232Z,5.24
2023-03-03T14:28:16.119Z,5.20
2023-03-03T14:33:37.122Z,5.18
2023-03-03T14:38:57.978Z,5.24
2023-03-03T14:44:36.171Z,5.14
2023-03-03T14:50:00.422Z,4.98
2023-03-03T14:55:35.986Z,5.00
2023-03-03T15:01:12.333Z,5.11
2023-03-03T15:06:48.477Z,4.92
2023-03-03T15:12:24.830Z,4.80
2023-03-03T15:18:05.334Z,4.65
2023-03-03T15:23:51.631Z,4.51
2023-03-03T15:29:22.568Z,4.47
2023-03-03T15:35:12.145Z,4.39
2023-03-03T15:40:53.412Z,4.28
2023-03-03T15:46:35.197Z,4.26
2023-03-03T15:52:21.467Z,4.29
2023-03-03T15:58:33.356Z,4.21
2023-03-03T16:04:09.691Z,4.09
2023-03-03T16:09:52.299Z,3.99
2023-03-03T16:15:35.354Z,3.83
2023-03-03T16:21:02.377Z,3.76
2023-03-03T16:26:47.734Z,3.84
2023-03-03T16:32:22.833Z,3.85
2023-03-03T16:38:05.679Z,3.86
2023-03-03T16:43:38.491Z,3.69
2023-03-03T16:49:16.990Z,3.58
2023-03-03T16:54:58.629Z,3.76
2023-03-03T17:00:28.576Z,3.86
2023-03-03T17:05:58.135Z,3.80
2023-03-03T17:11:35.088Z,3.63
2023-03-03T17:17:01.199Z,3.49
2023-03-03T17:22:46.427Z,3.24
2023-03-03T17:28:07.245Z,3.07
2023-03-03T17:33:57.447Z,2.96
2023-03-03T17:39:51.953Z,3.04
2023-03-03T17:45:15.700Z,3.07
2023-03-03T17:50:59.100Z,2.94
2023-03-03T17:56:40.178Z,2.97
2023-03-03T18:02:16.579Z,2.88
2023-03-03T18:08:04.740Z,2.74
2023-03-03T18:13:50.449Z,2.78
2023-03-03T18:19:52.616Z,2.66
2023-03-03T18:25:17.107Z,2.37
2023-03-03T18:30:46.993Z,2.33
2023-03-03T18:36:36.395Z,2.37
2023-03-03T18:42:11.542Z,2.31
2023-03-03T18:47:57.694Z,2.26
2023-03-03T18:53:31.073Z,2.23
2023-03-03T18:58:53.691Z,2.11
2023-03-03T19:04:16.349Z,1.86
2023-03-03T19:09:57.144Z,1.83
2023-03-03T19:15:30.325Z,1.81
2023-03-03T19:21:23.541Z,1.79
2023-03-03T19:27:09.865Z,1.55
2023-03-03T19:32:48.489Z,1.51
2023-03-03T19:38:32.353Z,1.43
2023-03-03T19:44:22.123Z,1.32
2023-03-03T19:50:10.357Z,1.34
2023-03-03T19:55:35.067Z,1.35
2023-03-03T20:00:55.705Z,1.29
2023-03-03T20:06:44.406Z,1.21
2023-03-03T20:12:16.469Z,1.13
2023-03-03T20:17:47.456Z,1.06
2023-03-03T20:23:26.710Z,1.00
2023-03-03T20:29:15.837Z,1.14
2023-03-03T20:35:03.224Z,1.32
2023-03-03T20:40:33.553Z,1.48
2023-03-03T20:46:08.256Z,1.43
2023-03-03T20:52:02.181Z,1.39
2023-03-03T20:57:38.661Z,1.17
2023-03-03T21:03:06.294Z,1.18
2023-03-03T21:08:48.573Z,1.19
2023-03-03T21:14:33.518Z,1.20
2023-03-03T21:19:54.592Z,1.26
2023-03-03T21:25:40.228Z,1.13
2023-03-03T21:31:15.488Z,1.09
2023-03-03T21:36:36.709Z,1.21
2023-03-03T21:42:09.484Z,1.24
2023-03-03T21:47:31.261Z,1.23
2023-03-03T21:52:52.402Z,1.03
2023-03-03T21:58:13.161Z,1.10
2023-03-03T22:03:34.416Z,0.95
2023-03-03T22:08:55.342Z,0.87
2023-03-03T22:14:16.122Z,0.88
2023-03-03T22:19:38.304Z,0.90
2023-03-03T22:24:59.044Z,0.81
2023-03-03T22:30:19.919Z,0.76
2023-03-03T22:35:40.826Z,0.87
2023-03-03T22:41:01.899Z,0.85
2023-03-03T22:46:23.175Z,0.65
2023-03-03T22:51:44.081Z,0.48
2023-03-03T22:57:04.735Z,0.56
2023-03-03T23:02:25.791Z,0.76
2023-03-03T23:07:46.772Z,0.61
2023-03-03T23:13:08.794Z,0.73
2023-03-03T23:18:29.625Z,0.81
2023-03-03T23:23:50.403Z,0.72
2023-03-03T23:29:10.982Z,0.70
2023-03-03T23:34:32.536Z,0.64
2023-03-03T23:39:53.123Z,0.76
2023-03-03T23:45:14.263Z,0.65
2023-03-03T23:50:37.256Z,0.74
2023-03-03T23:55:58.314Z,0.44
